sensor_id;sensor_type;location;lat;lon;timestamp;P1;durP1;ratioP1;P2;durP2;ratioP2
80123;SDS011;69433;48.642;9.142;2023-12-29T00:00:19;20.13;;;13.75;;
80123;SDS011;69433;48.642;9.142;2023-12-29T00:05:48;18.67;;;12.35;;
80123;SDS011;69433;48.642;9.142;2023-12-29T00:10:57;19.30;;;12.38;;
80123;SDS011;69433;48.642;9.142;2023-12-29T00:13:35;18.45;;;12.43;;
80123;SDS011;69433;48.642;9.142;2023-12-29T00:16:02;17.30;;;11.50;;
80123;SDS011;69433;48.642;9.142;2023-12-29T00:18:43;16.77;;;11.35;;
80123;SDS011;69433;48.642;9.142;2023-12-29T00:23:42;16.77;;;12.77;;
80123;SDS011;69433;48.642;9.142;2023-12-29T00:26:11;18.02;;;12.48;;
80123;SDS011;69433;48.642;9.142;2023-12-29T00:28:37;17.00;;;11.93;;
80123;SDS011;69433;48.642;9.142;2023-12-29T00:31:06;18.67;;;12.40;;
80123;SDS011;69433;48.642;9.142;2023-12-29T00:33:34;18.02;;;11.77;;
80123;SDS011;69433;48.642;9.142;2023-12-29T00:38:28;16.33;;;11.43;;
80123;SDS011;69433;48.642;9.142;2023-12-29T00:40:54;18.55;;;11.75;;
80123;SDS011;69433;48.642;9.142;2023-12-29T00:43:27;17.75;;;12.25;;
80123;SDS011;69433;48.642;9.142;2023-12-29T00:45:56;16.70;;;11.20;;
80123;SDS011;69433;48.642;9.142;2023-12-29T00:48:21;17.73;;;11.13;;
80123;SDS011;69433;48.642;9.142;2023-12-29T00:51:00;17.05;;;11.68;;
80123;SDS011;69433;48.642;9.142;2023-12-29T00:53:30;15.95;;;10.98;;
80123;SDS011;69433;48.642;9.142;2023-12-29T00:55:57;16.10;;;11.27;;
80123;SDS011;69433;48.642;9.142;2023-12-29T00:58:31;15.63;;;11.35;;
80123;SDS011;69433;48.642;9.142;2023-12-29T01:00:56;16.70;;;11.70;;
80123;SDS011;69433;48.642;9.142;2023-12-29T01:03:21;15.95;;;10.35;;
80123;SDS011;69433;48.642;9.142;2023-12-29T01:05:57;17.83;;;11.85;;
80123;SDS011;69433;48.642;9.142;2023-12-29T01:08:32;15.38;;;10.65;;
80123;SDS011;69433;48.642;9.142;2023-12-29T01:11:09;14.07;;;10.05;;
80123;SDS011;69433;48.642;9.142;2023-12-29T01:13:35;14.95;;;10.25;;
80123;SDS011;69433;48.642;9.142;2023-12-29T01:16:01;15.75;;;10.93;;
80123;SDS011;69433;48.642;9.142;2023-12-29T01:18:28;16.15;;;10.63;;
80123;SDS011;69433;48.642;9.142;2023-12-29T01:20:54;15.95;;;10.57;;
80123;SDS011;69433;48.642;9.142;2023-12-29T01:23:30;16.98;;;10.35;;
80123;SDS011;69433;48.642;9.142;2023-12-29T01:25:57;15.05;;;10.30;;
80123;SDS011;69433;48.642;9.142;2023-12-29T01:28:30;15.85;;;10.60;;
80123;SDS011;69433;48.642;9.142;2023-12-29T01:31:05;15.30;;;10.05;;
80123;SDS011;69433;48.642;9.142;2023-12-29T01:33:30;15.20;;;10.35;;
80123;SDS011;69433;48.642;9.142;2023-12-29T01:35:55;15.40;;;10.80;;
80123;SDS011;69433;48.642;9.142;2023-12-29T01:38:22;13.55;;;9.82;;
80123;SDS011;69433;48.642;9.142;2023-12-29T01:40:55;16.52;;;11.27;;
80123;SDS011;69433;48.642;9.142;2023-12-29T01:43:20;15.88;;;10.95;;
80123;SDS011;69433;48.642;9.142;2023-12-29T01:45:47;18.50;;;10.82;;
80123;SDS011;69433;48.642;9.142;2023-12-29T01:50:53;13.75;;;9.13;;
80123;SDS011;69433;48.642;9.142;2023-12-29T01:53:21;14.30;;;9.35;;
80123;SDS011;69433;48.642;9.142;2023-12-29T01:55:55;13.27;;;10.20;;
80123;SDS011;69433;48.642;9.142;2023-12-29T01:58:20;15.30;;;10.57;;
80123;SDS011;69433;48.642;9.142;2023-12-29T02:03:22;14.32;;;10.32;;
80123;SDS011;69433;48.642;9.142;2023-12-29T02:05:48;15.15;;;9.85;;
80123;SDS011;69433;48.642;9.142;2023-12-29T02:08:14;13.35;;;9.60;;
80123;SDS011;69433;48.642;9.142;2023-12-29T02:10:47;14.60;;;9.13;;
80123;SDS011;69433;48.642;9.142;2023-12-29T02:13:12;14.32;;;9.93;;
80123;SDS011;69433;48.642;9.142;2023-12-29T02:15:38;13.38;;;9.35;;
80123;SDS011;69433;48.642;9.142;2023-12-29T02:18:03;14.93;;;9.70;;
80123;SDS011;69433;48.642;9.142;2023-12-29T02:20:35;13.00;;;9.27;;
80123;SDS011;69433;48.642;9.142;2023-12-29T02:23:12;12.73;;;8.70;;
80123;SDS011;69433;48.642;9.142;2023-12-29T02:25:52;13.30;;;9.35;;
80123;SDS011;69433;48.642;9.142;2023-12-29T02:28:29;13.10;;;9.02;;
80123;SDS011;69433;48.642;9.142;2023-12-29T02:34:09;13.25;;;8.77;;
80123;SDS011;69433;48.642;9.142;2023-12-29T02:36:37;12.80;;;8.75;;
80123;SDS011;69433;48.642;9.142;2023-12-29T02:39:08;14.05;;;9.10;;
80123;SDS011;69433;48.642;9.142;2023-12-29T02:41:35;12.82;;;8.93;;
80123;SDS011;69433;48.642;9.142;2023-12-29T02:44:03;13.20;;;9.05;;
80123;SDS011;69433;48.642;9.142;2023-12-29T02:46:29;13.07;;;8.98;;
80123;SDS011;69433;48.642;9.142;2023-12-29T02:49:07;13.25;;;8.52;;
80123;SDS011;69433;48.642;9.142;2023-12-29T02:54:42;11.88;;;8.40;;
80123;SDS011;69433;48.642;9.142;2023-12-29T02:57:23;11.38;;;8.18;;
80123;SDS011;69433;48.642;9.142;2023-12-29T02:59:49;12.18;;;8.90;;
80123;SDS011;69433;48.642;9.142;2023-12-29T03:02:15;12.50;;;8.70;;
80123;SDS011;69433;48.642;9.142;2023-12-29T03:04:51;11.02;;;8.07;;
80123;SDS011;69433;48.642;9.142;2023-12-29T03:07:22;12.43;;;8.48;;
80123;SDS011;69433;48.642;9.142;2023-12-29T03:09:48;12.80;;;8.10;;
80123;SDS011;69433;48.642;9.142;2023-12-29T03:14:46;11.18;;;7.82;;
80123;SDS011;69433;48.642;9.142;2023-12-29T03:17:12;13.77;;;8.82;;
80123;SDS011;69433;48.642;9.142;2023-12-29T03:19:37;12.40;;;8.88;;
80123;SDS011;69433;48.642;9.142;2023-12-29T03:22:11;11.00;;;7.53;;
80123;SDS011;69433;48.642;9.142;2023-12-29T03:24:44;11.75;;;8.52;;
80123;SDS011;69433;48.642;9.142;2023-12-29T03:27:09;11.73;;;8.55;;
80123;SDS011;69433;48.642;9.142;2023-12-29T03:32:19;13.27;;;8.10;;
80123;SDS011;69433;48.642;9.142;2023-12-29T03:37:34;11.85;;;8.27;;
80123;SDS011;69433;48.642;9.142;2023-12-29T03:40:02;11.23;;;8.05;;
80123;SDS011;69433;48.642;9.142;2023-12-29T03:42:27;11.93;;;8.48;;
80123;SDS011;69433;48.642;9.142;2023-12-29T03:45:07;12.63;;;7.65;;
80123;SDS011;69433;48.642;9.142;2023-12-29T03:47:33;10.82;;;7.13;;
80123;SDS011;69433;48.642;9.142;2023-12-29T03:50:00;11.38;;;8.48;;
80123;SDS011;69433;48.642;9.142;2023-12-29T03:52:25;12.18;;;7.55;;
80123;SDS011;69433;48.642;9.142;2023-12-29T03:54:57;11.50;;;7.57;;
80123;SDS011;69433;48.642;9.142;2023-12-29T03:57:22;11.27;;;7.18;;
80123;SDS011;69433;48.642;9.142;2023-12-29T04:02:46;11.07;;;7.63;;
80123;SDS011;69433;48.642;9.142;2023-12-29T04:05:11;11.70;;;7.53;;
80123;SDS011;69433;48.642;9.142;2023-12-29T04:10:28;11.70;;;7.30;;
80123;SDS011;69433;48.642;9.142;2023-12-29T04:12:53;11.75;;;7.97;;
80123;SDS011;69433;48.642;9.142;2023-12-29T04:15:34;11.10;;;7.10;;
80123;SDS011;69433;48.642;9.142;2023-12-29T04:20:46;8.77;;;6.18;;
80123;SDS011;69433;48.642;9.142;2023-12-29T04:23:21;7.90;;;5.80;;
80123;SDS011;69433;48.642;9.142;2023-12-29T04:28:50;7.95;;;5.05;;
80123;SDS011;69433;48.642;9.142;2023-12-29T04:31:16;7.93;;;5.20;;
80123;SDS011;69433;48.642;9.142;2023-12-29T04:33:41;7.80;;;5.28;;
80123;SDS011;69433;48.642;9.142;2023-12-29T04:36:22;8.40;;;5.10;;
80123;SDS011;69433;48.642;9.142;2023-12-29T04:38:50;7.25;;;5.18;;
80123;SDS011;69433;48.642;9.142;2023-12-29T04:41:15;11.05;;;5.00;;
80123;SDS011;69433;48.642;9.142;2023-12-29T04:43:47;9.27;;;5.13;;
80123;SDS011;69433;48.642;9.142;2023-12-29T04:46:15;7.28;;;4.88;;
80123;SDS011;69433;48.642;9.142;2023-12-29T04:48:55;7.20;;;4.97;;
80123;SDS011;69433;48.642;9.142;2023-12-29T04:51:20;7.80;;;5.55;;
80123;SDS011;69433;48.642;9.142;2023-12-29T04:53:52;7.57;;;5.28;;
80123;SDS011;69433;48.642;9.142;2023-12-29T04:59:11;8.90;;;5.80;;
80123;SDS011;69433;48.642;9.142;2023-12-29T05:01:55;7.25;;;5.00;;
80123;SDS011;69433;48.642;9.142;2023-12-29T05:04:20;8.35;;;5.88;;
80123;SDS011;69433;48.642;9.142;2023-12-29T05:06:49;7.72;;;5.43;;
80123;SDS011;69433;48.642;9.142;2023-12-29T05:09:22;7.25;;;5.00;;
80123;SDS011;69433;48.642;9.142;2023-12-29T05:14:36;6.65;;;4.63;;
80123;SDS011;69433;48.642;9.142;2023-12-29T05:17:01;7.28;;;4.90;;
80123;SDS011;69433;48.642;9.142;2023-12-29T05:19:33;6.35;;;4.55;;
80123;SDS011;69433;48.642;9.142;2023-12-29T05:22:01;7.35;;;5.10;;
80123;SDS011;69433;48.642;9.142;2023-12-29T05:24:26;7.38;;;4.72;;
80123;SDS011;69433;48.642;9.142;2023-12-29T05:26:52;7.03;;;4.90;;
80123;SDS011;69433;48.642;9.142;2023-12-29T05:29:24;6.90;;;4.60;;
80123;SDS011;69433;48.642;9.142;2023-12-29T05:31:56;6.85;;;4.38;;
80123;SDS011;69433;48.642;9.142;2023-12-29T05:34:22;6.20;;;4.30;;
80123;SDS011;69433;48.642;9.142;2023-12-29T05:42:21;6.53;;;4.25;;
80123;SDS011;69433;48.642;9.142;2023-12-29T05:44:59;7.55;;;4.70;;
80123;SDS011;69433;48.642;9.142;2023-12-29T05:50:10;5.80;;;4.25;;
80123;SDS011;69433;48.642;9.142;2023-12-29T05:52:43;6.40;;;4.25;;
80123;SDS011;69433;48.642;9.142;2023-12-29T05:55:08;6.72;;;3.97;;
80123;SDS011;69433;48.642;9.142;2023-12-29T05:57:33;6.38;;;3.85;;
80123;SDS011;69433;48.642;9.142;2023-12-29T05:59:58;7.40;;;4.30;;
80123;SDS011;69433;48.642;9.142;2023-12-29T06:02:24;6.95;;;4.43;;
80123;SDS011;69433;48.642;9.142;2023-12-29T06:05:01;7.50;;;3.85;;
80123;SDS011;69433;48.642;9.142;2023-12-29T06:07:41;6.20;;;4.13;;
80123;SDS011;69433;48.642;9.142;2023-12-29T06:10:06;6.45;;;4.30;;
80123;SDS011;69433;48.642;9.142;2023-12-29T06:12:43;8.55;;;3.90;;
80123;SDS011;69433;48.642;9.142;2023-12-29T06:17:56;5.47;;;3.90;;
80123;SDS011;69433;48.642;9.142;2023-12-29T06:20:22;5.55;;;3.78;;
80123;SDS011;69433;48.642;9.142;2023-12-29T06:22:50;6.95;;;4.13;;
80123;SDS011;69433;48.642;9.142;2023-12-29T06:25:22;7.32;;;4.05;;
80123;SDS011;69433;48.642;9.142;2023-12-29T06:27:48;7.05;;;4.38;;
80123;SDS011;69433;48.642;9.142;2023-12-29T06:30:13;5.40;;;3.97;;
80123;SDS011;69433;48.642;9.142;2023-12-29T06:32:44;6.18;;;4.03;;
80123;SDS011;69433;48.642;9.142;2023-12-29T06:40:32;5.43;;;3.97;;
80123;SDS011;69433;48.642;9.142;2023-12-29T06:43:04;5.32;;;4.00;;
80123;SDS011;69433;48.642;9.142;2023-12-29T06:45:46;4.80;;;3.80;;
80123;SDS011;69433;48.642;9.142;2023-12-29T06:48:17;6.40;;;4.07;;
80123;SDS011;69433;48.642;9.142;2023-12-29T06:50:43;5.75;;;3.90;;
80123;SDS011;69433;48.642;9.142;2023-12-29T07:01:25;6.75;;;3.78;;
80123;SDS011;69433;48.642;9.142;2023-12-29T07:03:54;6.40;;;4.07;;
80123;SDS011;69433;48.642;9.142;2023-12-29T07:06:21;6.05;;;3.67;;
80123;SDS011;69433;48.642;9.142;2023-12-29T07:11:22;6.28;;;3.83;;
80123;SDS011;69433;48.642;9.142;2023-12-29T07:13:56;4.97;;;3.55;;
80123;SDS011;69433;48.642;9.142;2023-12-29T07:16:27;6.30;;;3.92;;
80123;SDS011;69433;48.642;9.142;2023-12-29T07:21:21;5.30;;;3.50;;
80123;SDS011;69433;48.642;9.142;2023-12-29T07:26:38;5.85;;;3.70;;
80123;SDS011;69433;48.642;9.142;2023-12-29T07:31:37;6.15;;;3.80;;
80123;SDS011;69433;48.642;9.142;2023-12-29T07:34:03;5.85;;;3.47;;
80123;SDS011;69433;48.642;9.142;2023-12-29T07:36:38;4.82;;;3.65;;
80123;SDS011;69433;48.642;9.142;2023-12-29T07:39:09;5.80;;;3.50;;
80123;SDS011;69433;48.642;9.142;2023-12-29T07:41:39;5.88;;;3.97;;
80123;SDS011;69433;48.642;9.142;2023-12-29T07:44:07;8.05;;;3.72;;
80123;SDS011;69433;48.642;9.142;2023-12-29T07:46:35;4.85;;;3.42;;
80123;SDS011;69433;48.642;9.142;2023-12-29T07:49:01;4.85;;;3.35;;
80123;SDS011;69433;48.642;9.142;2023-12-29T07:54:20;5.72;;;3.83;;
80123;SDS011;69433;48.642;9.142;2023-12-29T07:59:58;4.80;;;3.42;;
80123;SDS011;69433;48.642;9.142;2023-12-29T08:02:33;4.70;;;3.30;;
80123;SDS011;69433;48.642;9.142;2023-12-29T08:05:08;5.18;;;3.30;;
80123;SDS011;69433;48.642;9.142;2023-12-29T08:07:34;4.75;;;3.40;;
80123;SDS011;69433;48.642;9.142;2023-12-29T08:10:00;5.07;;;3.30;;
80123;SDS011;69433;48.642;9.142;2023-12-29T08:17:47;4.72;;;3.33;;
80123;SDS011;69433;48.642;9.142;2023-12-29T08:20:21;5.03;;;3.38;;
80123;SDS011;69433;48.642;9.142;2023-12-29T08:25:27;5.07;;;3.30;;
80123;SDS011;69433;48.642;9.142;2023-12-29T08:27:53;5.25;;;3.38;;
80123;SDS011;69433;48.642;9.142;2023-12-29T08:35:57;4.53;;;3.03;;
80123;SDS011;69433;48.642;9.142;2023-12-29T08:38:28;5.55;;;3.30;;
80123;SDS011;69433;48.642;9.142;2023-12-29T08:41:00;8.57;;;3.10;;
80123;SDS011;69433;48.642;9.142;2023-12-29T08:43:25;7.45;;;3.45;;
80123;SDS011;69433;48.642;9.142;2023-12-29T08:45:52;9.85;;;3.45;;
80123;SDS011;69433;48.642;9.142;2023-12-29T08:48:18;8.10;;;3.78;;
80123;SDS011;69433;48.642;9.142;2023-12-29T08:50:43;5.60;;;3.15;;
80123;SDS011;69433;48.642;9.142;2023-12-29T08:53:26;5.00;;;3.50;;
80123;SDS011;69433;48.642;9.142;2023-12-29T08:58:17;5.97;;;3.38;;
80123;SDS011;69433;48.642;9.142;2023-12-29T09:00:48;5.63;;;3.17;;
80123;SDS011;69433;48.642;9.142;2023-12-29T09:06:03;7.88;;;3.35;;
80123;SDS011;69433;48.642;9.142;2023-12-29T09:08:29;5.93;;;3.42;;
80123;SDS011;69433;48.642;9.142;2023-12-29T09:10:55;5.80;;;3.20;;
80123;SDS011;69433;48.642;9.142;2023-12-29T09:13:20;5.82;;;3.30;;
80123;SDS011;69433;48.642;9.142;2023-12-29T09:16:01;8.60;;;3.20;;
80123;SDS011;69433;48.642;9.142;2023-12-29T09:18:42;6.00;;;3.25;;
80123;SDS011;69433;48.642;9.142;2023-12-29T09:21:07;4.05;;;3.13;;
80123;SDS011;69433;48.642;9.142;2023-12-29T09:23:32;6.15;;;3.42;;
80123;SDS011;69433;48.642;9.142;2023-12-29T09:28:55;5.00;;;2.78;;
80123;SDS011;69433;48.642;9.142;2023-12-29T09:31:27;5.40;;;3.03;;
80123;SDS011;69433;48.642;9.142;2023-12-29T09:33:54;4.80;;;3.03;;
80123;SDS011;69433;48.642;9.142;2023-12-29T09:36:27;5.82;;;2.95;;
80123;SDS011;69433;48.642;9.142;2023-12-29T09:38:53;5.72;;;3.40;;
80123;SDS011;69433;48.642;9.142;2023-12-29T09:41:32;4.47;;;3.10;;
80123;SDS011;69433;48.642;9.142;2023-12-29T09:44:01;4.30;;;2.95;;
80123;SDS011;69433;48.642;9.142;2023-12-29T09:46:29;7.28;;;3.10;;
80123;SDS011;69433;48.642;9.142;2023-12-29T09:49:02;5.32;;;2.65;;
80123;SDS011;69433;48.642;9.142;2023-12-29T09:54:33;4.32;;;3.08;;
80123;SDS011;69433;48.642;9.142;2023-12-29T09:57:06;5.45;;;3.10;;
80123;SDS011;69433;48.642;9.142;2023-12-29T09:59:48;5.13;;;3.00;;
80123;SDS011;69433;48.642;9.142;2023-12-29T10:02:16;4.22;;;2.72;;
80123;SDS011;69433;48.642;9.142;2023-12-29T10:04:47;5.90;;;2.50;;
80123;SDS011;69433;48.642;9.142;2023-12-29T10:10:18;4.28;;;2.83;;
80123;SDS011;69433;48.642;9.142;2023-12-29T10:21:48;4.93;;;2.63;;
80123;SDS011;69433;48.642;9.142;2023-12-29T10:24:27;4.30;;;2.97;;
80123;SDS011;69433;48.642;9.142;2023-12-29T10:33:00;3.75;;;2.65;;
80123;SDS011;69433;48.642;9.142;2023-12-29T10:35:27;7.07;;;3.10;;
80123;SDS011;69433;48.642;9.142;2023-12-29T10:40:40;3.97;;;2.58;;
80123;SDS011;69433;48.642;9.142;2023-12-29T10:43:10;4.63;;;2.80;;
80123;SDS011;69433;48.642;9.142;2023-12-29T10:45:47;4.43;;;2.50;;
80123;SDS011;69433;48.642;9.142;2023-12-29T10:48:24;3.60;;;2.28;;
80123;SDS011;69433;48.642;9.142;2023-12-29T10:53:36;3.42;;;2.35;;
80123;SDS011;69433;48.642;9.142;2023-12-29T11:04:23;5.93;;;2.63;;
80123;SDS011;69433;48.642;9.142;2023-12-29T11:06:49;4.90;;;2.40;;
80123;SDS011;69433;48.642;9.142;2023-12-29T11:12:16;4.28;;;2.22;;
80123;SDS011;69433;48.642;9.142;2023-12-29T11:14:42;7.07;;;2.80;;
80123;SDS011;69433;48.642;9.142;2023-12-29T11:17:19;5.18;;;2.50;;
80123;SDS011;69433;48.642;9.142;2023-12-29T11:19:57;4.53;;;2.30;;
80123;SDS011;69433;48.642;9.142;2023-12-29T11:22:36;4.13;;;2.33;;
80123;SDS011;69433;48.642;9.142;2023-12-29T11:27:50;5.45;;;2.20;;
80123;SDS011;69433;48.642;9.142;2023-12-29T11:30:16;9.23;;;2.60;;
80123;SDS011;69433;48.642;9.142;2023-12-29T11:33:02;5.00;;;2.53;;
80123;SDS011;69433;48.642;9.142;2023-12-29T11:38:28;5.93;;;2.50;;
80123;SDS011;69433;48.642;9.142;2023-12-29T11:41:13;4.82;;;2.10;;
80123;SDS011;69433;48.642;9.142;2023-12-29T11:44:05;3.88;;;2.13;;
80123;SDS011;69433;48.642;9.142;2023-12-29T11:46:40;4.95;;;2.42;;
80123;SDS011;69433;48.642;9.142;2023-12-29T11:49:16;6.20;;;2.50;;
80123;SDS011;69433;48.642;9.142;2023-12-29T11:52:00;5.32;;;2.33;;
80123;SDS011;69433;48.642;9.142;2023-12-29T11:54:26;5.93;;;2.42;;
80123;SDS011;69433;48.642;9.142;2023-12-29T11:57:00;5.18;;;2.53;;
80123;SDS011;69433;48.642;9.142;2023-12-29T11:59:26;7.28;;;2.72;;
80123;SDS011;69433;48.642;9.142;2023-12-29T12:09:48;3.40;;;2.20;;
80123;SDS011;69433;48.642;9.142;2023-12-29T12:18:06;5.35;;;2.47;;
80123;SDS011;69433;48.642;9.142;2023-12-29T12:20:33;8.85;;;2.35;;
80123;SDS011;69433;48.642;9.142;2023-12-29T12:29:16;8.55;;;2.92;;
80123;SDS011;69433;48.642;9.142;2023-12-29T12:34:57;4.45;;;2.50;;
80123;SDS011;69433;48.642;9.142;2023-12-29T12:39:54;6.32;;;1.92;;
80123;SDS011;69433;48.642;9.142;2023-12-29T12:42:21;4.97;;;2.60;;
80123;SDS011;69433;48.642;9.142;2023-12-29T12:44:48;3.45;;;2.30;;
80123;SDS011;69433;48.642;9.142;2023-12-29T12:47:23;3.63;;;1.85;;
80123;SDS011;69433;48.642;9.142;2023-12-29T12:49:52;5.20;;;2.33;;
80123;SDS011;69433;48.642;9.142;2023-12-29T12:55:19;4.50;;;2.10;;
80123;SDS011;69433;48.642;9.142;2023-12-29T12:58:02;3.95;;;2.15;;
80123;SDS011;69433;48.642;9.142;2023-12-29T13:00:43;4.50;;;2.20;;
80123;SDS011;69433;48.642;9.142;2023-12-29T13:03:22;5.22;;;2.28;;
80123;SDS011;69433;48.642;9.142;2023-12-29T13:06:00;4.82;;;2.08;;
80123;SDS011;69433;48.642;9.142;2023-12-29T13:08:28;7.97;;;2.30;;
80123;SDS011;69433;48.642;9.142;2023-12-29T13:11:08;5.63;;;2.38;;
80123;SDS011;69433;48.642;9.142;2023-12-29T13:13:48;6.93;;;2.47;;
80123;SDS011;69433;48.642;9.142;2023-12-29T13:16:14;3.50;;;2.30;;
80123;SDS011;69433;48.642;9.142;2023-12-29T13:21:17;6.25;;;2.30;;
80123;SDS011;69433;48.642;9.142;2023-12-29T13:23:43;5.90;;;2.28;;
80123;SDS011;69433;48.642;9.142;2023-12-29T13:26:09;5.45;;;2.17;;
80123;SDS011;69433;48.642;9.142;2023-12-29T13:31:17;8.38;;;2.28;;
80123;SDS011;69433;48.642;9.142;2023-12-29T13:42:27;5.55;;;2.05;;
80123;SDS011;69433;48.642;9.142;2023-12-29T13:44:56;6.28;;;2.10;;
80123;SDS011;69433;48.642;9.142;2023-12-29T13:47:25;4.15;;;2.08;;
80123;SDS011;69433;48.642;9.142;2023-12-29T13:52:49;5.82;;;2.47;;
80123;SDS011;69433;48.642;9.142;2023-12-29T13:55:28;7.38;;;2.45;;
80123;SDS011;69433;48.642;9.142;2023-12-29T13:57:53;3.58;;;2.08;;
80123;SDS011;69433;48.642;9.142;2023-12-29T14:00:20;3.72;;;2.03;;
80123;SDS011;69433;48.642;9.142;2023-12-29T14:05:39;6.20;;;1.90;;
80123;SDS011;69433;48.642;9.142;2023-12-29T14:08:26;6.18;;;1.95;;
80123;SDS011;69433;48.642;9.142;2023-12-29T14:13:46;3.85;;;2.00;;
80123;SDS011;69433;48.642;9.142;2023-12-29T14:16:14;4.10;;;2.03;;
80123;SDS011;69433;48.642;9.142;2023-12-29T14:18:54;4.45;;;1.70;;
80123;SDS011;69433;48.642;9.142;2023-12-29T14:21:32;5.18;;;2.10;;
80123;SDS011;69433;48.642;9.142;2023-12-29T14:24:08;6.68;;;2.20;;
80123;SDS011;69433;48.642;9.142;2023-12-29T14:29:23;5.93;;;2.03;;
80123;SDS011;69433;48.642;9.142;2023-12-29T14:32:02;5.53;;;1.95;;
80123;SDS011;69433;48.642;9.142;2023-12-29T14:34:27;4.57;;;2.00;;
80123;SDS011;69433;48.642;9.142;2023-12-29T14:36:53;4.57;;;2.00;;
80123;SDS011;69433;48.642;9.142;2023-12-29T14:39:18;4.95;;;2.17;;
80123;SDS011;69433;48.642;9.142;2023-12-29T14:41:48;5.60;;;1.70;;
80123;SDS011;69433;48.642;9.142;2023-12-29T14:44:14;6.90;;;2.00;;
80123;SDS011;69433;48.642;9.142;2023-12-29T14:46:39;4.18;;;1.77;;
80123;SDS011;69433;48.642;9.142;2023-12-29T14:49:13;3.25;;;2.15;;
80123;SDS011;69433;48.642;9.142;2023-12-29T14:51:38;3.63;;;1.67;;
80123;SDS011;69433;48.642;9.142;2023-12-29T14:54:04;4.50;;;1.88;;
80123;SDS011;69433;48.642;9.142;2023-12-29T14:56:42;2.42;;;1.65;;
80123;SDS011;69433;48.642;9.142;2023-12-29T14:59:21;4.38;;;1.77;;
80123;SDS011;69433;48.642;9.142;2023-12-29T15:02:03;3.70;;;1.98;;
80123;SDS011;69433;48.642;9.142;2023-12-29T15:04:32;4.55;;;2.05;;
80123;SDS011;69433;48.642;9.142;2023-12-29T15:07:03;4.13;;;1.60;;
80123;SDS011;69433;48.642;9.142;2023-12-29T15:09:36;5.15;;;1.70;;
80123;SDS011;69433;48.642;9.142;2023-12-29T15:15:08;3.85;;;1.70;;
80123;SDS011;69433;48.642;9.142;2023-12-29T15:17:33;15.50;;;8.23;;
80123;SDS011;69433;48.642;9.142;2023-12-29T15:20:19;38.83;;;24.98;;
80123;SDS011;69433;48.642;9.142;2023-12-29T15:22:45;51.33;;;34.80;;
80123;SDS011;69433;48.642;9.142;2023-12-29T15:25:10;56.03;;;35.55;;
80123;SDS011;69433;48.642;9.142;2023-12-29T15:27:44;52.00;;;33.70;;
80123;SDS011;69433;48.642;9.142;2023-12-29T15:32:38;39.83;;;26.65;;
80123;SDS011;69433;48.642;9.142;2023-12-29T15:38:37;34.33;;;21.60;;
80123;SDS011;69433;48.642;9.142;2023-12-29T15:41:05;33.55;;;22.33;;
80123;SDS011;69433;48.642;9.142;2023-12-29T15:43:34;29.70;;;20.05;;
80123;SDS011;69433;48.642;9.142;2023-12-29T15:46:00;33.55;;;22.23;;
80123;SDS011;69433;48.642;9.142;2023-12-29T15:48:26;16.90;;;11.00;;
80123;SDS011;69433;48.642;9.142;2023-12-29T15:50:55;21.95;;;14.50;;
80123;SDS011;69433;48.642;9.142;2023-12-29T15:53:38;26.67;;;16.98;;
80123;SDS011;69433;48.642;9.142;2023-12-29T15:56:15;22.25;;;15.77;;
80123;SDS011;69433;48.642;9.142;2023-12-29T15:58:43;23.85;;;17.15;;
80123;SDS011;69433;48.642;9.142;2023-12-29T16:04:04;21.77;;;13.43;;
80123;SDS011;69433;48.642;9.142;2023-12-29T16:06:32;18.48;;;13.40;;
80123;SDS011;69433;48.642;9.142;2023-12-29T16:09:05;18.40;;;12.45;;
80123;SDS011;69433;48.642;9.142;2023-12-29T16:11:41;17.02;;;11.32;;
80123;SDS011;69433;48.642;9.142;2023-12-29T16:17:04;17.00;;;10.27;;
80123;SDS011;69433;48.642;9.142;2023-12-29T16:19:30;13.43;;;8.27;;
80123;SDS011;69433;48.642;9.142;2023-12-29T16:21:55;10.48;;;7.50;;
80123;SDS011;69433;48.642;9.142;2023-12-29T16:24:22;14.93;;;9.27;;
80123;SDS011;69433;48.642;9.142;2023-12-29T16:26:47;14.10;;;9.15;;
80123;SDS011;69433;48.642;9.142;2023-12-29T16:29:13;12.88;;;8.73;;
80123;SDS011;69433;48.642;9.142;2023-12-29T16:31:46;12.65;;;8.15;;
80123;SDS011;69433;48.642;9.142;2023-12-29T16:34:11;13.48;;;8.07;;
80123;SDS011;69433;48.642;9.142;2023-12-29T16:36:36;15.35;;;7.35;;
80123;SDS011;69433;48.642;9.142;2023-12-29T16:39:02;12.60;;;7.80;;
80123;SDS011;69433;48.642;9.142;2023-12-29T16:41:31;12.55;;;7.38;;
80123;SDS011;69433;48.642;9.142;2023-12-29T16:43:58;12.13;;;8.02;;
80123;SDS011;69433;48.642;9.142;2023-12-29T16:46:34;11.27;;;7.45;;
80123;SDS011;69433;48.642;9.142;2023-12-29T16:49:12;10.98;;;7.10;;
80123;SDS011;69433;48.642;9.142;2023-12-29T16:51:38;11.60;;;7.00;;
80123;SDS011;69433;48.642;9.142;2023-12-29T16:54:05;12.88;;;7.75;;
80123;SDS011;69433;48.642;9.142;2023-12-29T16:56:45;13.55;;;6.97;;
80123;SDS011;69433;48.642;9.142;2023-12-29T16:59:10;10.90;;;7.25;;
80123;SDS011;69433;48.642;9.142;2023-12-29T17:01:35;11.07;;;6.75;;
80123;SDS011;69433;48.642;9.142;2023-12-29T17:04:11;10.57;;;7.38;;
80123;SDS011;69433;48.642;9.142;2023-12-29T17:06:41;11.98;;;7.00;;
80123;SDS011;69433;48.642;9.142;2023-12-29T17:09:06;10.13;;;6.97;;
80123;SDS011;69433;48.642;9.142;2023-12-29T17:11:33;11.70;;;7.15;;
80123;SDS011;69433;48.642;9.142;2023-12-29T17:13:59;11.82;;;7.13;;
80123;SDS011;69433;48.642;9.142;2023-12-29T17:16:33;13.20;;;6.85;;
80123;SDS011;69433;48.642;9.142;2023-12-29T17:19:01;10.32;;;6.38;;
80123;SDS011;69433;48.642;9.142;2023-12-29T17:21:29;9.65;;;6.28;;
80123;SDS011;69433;48.642;9.142;2023-12-29T17:23:55;10.55;;;6.95;;
80123;SDS011;69433;48.642;9.142;2023-12-29T17:26:22;9.32;;;6.57;;
80123;SDS011;69433;48.642;9.142;2023-12-29T17:28:47;11.95;;;7.07;;
80123;SDS011;69433;48.642;9.142;2023-12-29T17:31:18;10.98;;;7.00;;
80123;SDS011;69433;48.642;9.142;2023-12-29T17:33:44;10.95;;;6.40;;
80123;SDS011;69433;48.642;9.142;2023-12-29T17:36:19;9.82;;;6.18;;
80123;SDS011;69433;48.642;9.142;2023-12-29T17:38:45;11.90;;;7.05;;
80123;SDS011;69433;48.642;9.142;2023-12-29T17:41:26;10.32;;;6.25;;
80123;SDS011;69433;48.642;9.142;2023-12-29T17:43:53;10.02;;;6.03;;
80123;SDS011;69433;48.642;9.142;2023-12-29T17:46:18;9.40;;;6.20;;
80123;SDS011;69433;48.642;9.142;2023-12-29T17:48:43;13.32;;;6.13;;
80123;SDS011;69433;48.642;9.142;2023-12-29T17:51:11;9.30;;;5.75;;
80123;SDS011;69433;48.642;9.142;2023-12-29T17:53:36;8.35;;;5.80;;
80123;SDS011;69433;48.642;9.142;2023-12-29T17:56:04;9.55;;;6.38;;
80123;SDS011;69433;48.642;9.142;2023-12-29T17:58:31;9.23;;;6.93;;
80123;SDS011;69433;48.642;9.142;2023-12-29T18:01:00;8.43;;;5.40;;
80123;SDS011;69433;48.642;9.142;2023-12-29T18:03:25;8.15;;;6.00;;
80123;SDS011;69433;48.642;9.142;2023-12-29T18:05:51;9.45;;;5.82;;
80123;SDS011;69433;48.642;9.142;2023-12-29T18:08:22;8.88;;;5.75;;
80123;SDS011;69433;48.642;9.142;2023-12-29T18:11:02;9.23;;;6.03;;
80123;SDS011;69433;48.642;9.142;2023-12-29T18:13:38;8.40;;;6.07;;
80123;SDS011;69433;48.642;9.142;2023-12-29T18:16:21;7.95;;;5.32;;
80123;SDS011;69433;48.642;9.142;2023-12-29T18:18:47;9.50;;;5.85;;
80123;SDS011;69433;48.642;9.142;2023-12-29T18:21:22;7.57;;;5.38;;
80123;SDS011;69433;48.642;9.142;2023-12-29T18:23:49;9.93;;;6.20;;
80123;SDS011;69433;48.642;9.142;2023-12-29T18:26:14;8.73;;;5.75;;
80123;SDS011;69433;48.642;9.142;2023-12-29T18:28:39;8.68;;;5.20;;
80123;SDS011;69433;48.642;9.142;2023-12-29T18:31:09;8.23;;;5.75;;
80123;SDS011;69433;48.642;9.142;2023-12-29T18:33:38;8.70;;;5.68;;
80123;SDS011;69433;48.642;9.142;2023-12-29T18:36:05;6.85;;;5.32;;
80123;SDS011;69433;48.642;9.142;2023-12-29T18:38:32;8.63;;;5.70;;